Time;durP1;ratioP1;P1;durP2;ratioP2;P2;SDS_P1;SDS_P2;PMS_P1;PMS_P2;Temp;Humidity;BMP_temperature;BMP_pressure;BME280_temperature;BME280_humidity;BME280_pressure;Samples;Min_cycle;Max_cycle;Signal;HPM_P1;HPM_P2
2022/04/13 00:00:46;;;;;;;23.42;15.40;;;12.90;49.00;;;;;;5147186;27;20080;-54
2022/04/13 00:03:12;;;;;;;25.98;15.73;;;12.90;49.00;;;;;;5131308;27;20031;-62
2022/04/13 00:05:37;;;;;;;23.27;15.63;;;13.00;48.90;;;;;;5131643;27;20038;-61
2022/04/13 00:08:06;;;;;;;22.60;15.00;;;12.80;49.20;;;;;;5132597;27;20024;-63
2022/04/13 00:10:35;;;;;;;26.48;15.57;;;12.90;49.30;;;;;;5133794;27;20097;-62
2022/04/13 00:13:01;;;;;;;21.55;15.57;;;12.80;49.50;;;;;;5136783;27;20038;-62
2022/04/13 00:15:27;;;;;;;24.10;15.27;;;12.80;49.50;;;;;;5136531;27;20472;-62
2022/04/13 00:17:53;;;;;;;22.05;15.07;;;12.70;49.50;;;;;;5136354;27;20034;-62
2022/04/13 00:20:20;;;;;;;21.13;15.32;;;12.70;49.50;;;;;;5136416;27;20105;-63
2022/04/13 00:22:46;;;;;;;26.15;15.52;;;12.70;49.70;;;;;;5136106;27;20114;-64
2022/04/13 00:25:12;;;;;;;27.77;16.63;;;12.70;49.60;;;;;;5117902;27;20106;-62
2022/04/13 00:27:37;;;;;;;21.15;15.13;;;12.70;49.70;;;;;;5136669;27;20027;-65
2022/04/13 00:30:04;;;;;;;22.90;15.25;;;12.70;49.70;;;;;;5136349;27;20027;-63
2022/04/13 00:32:29;;;;;;;23.92;15.90;;;12.70;49.70;;;;;;5136459;27;20431;-65
2022/04/13 00:34:57;;;;;;;22.40;15.35;;;12.70;49.90;;;;;;5136272;27;20046;-63
2022/04/13 00:37:23;;;;;;;27.55;15.98;;;12.70;49.80;;;;;;5136204;27;20133;-62
2022/04/13 00:39:49;;;;;;;23.83;15.52;;;12.70;49.80;;;;;;5135519;27;20027;-62
2022/04/13 00:42:16;;;;;;;22.83;15.20;;;12.60;50.00;;;;;;5136248;27;20043;-62
2022/04/13 00:44:42;;;;;;;23.48;15.32;;;12.60;50.10;;;;;;5135436;27;20020;-62
2022/04/13 00:47:08;;;;;;;22.25;14.40;;;12.50;50.40;;;;;;5136110;27;20022;-64
2022/04/13 00:49:35;;;;;;;23.55;14.88;;;12.50;50.20;;;;;;5135389;27;20047;-63
2022/04/13 00:52:04;;;;;;;26.17;15.20;;;12.50;50.30;;;;;;5117693;27;20076;-63
2022/04/13 00:54:31;;;;;;;24.95;15.50;;;12.50;50.50;;;;;;5135981;27;20084;-63
2022/04/13 00:56:58;;;;;;;22.58;15.02;;;12.40;50.60;;;;;;5117693;27;20027;-63
2022/04/13 00:59:25;;;;;;;21.88;14.77;;;12.40;50.90;;;;;;5136188;27;20483;-63
2022/04/13 01:01:54;;;;;;;24.83;14.80;;;12.40;50.90;;;;;;5135058;27;20602;-63
2022/04/13 01:04:22;;;;;;;24.58;15.48;;;12.40;51.00;;;;;;5135967;27;20026;-63
2022/04/13 01:06:48;;;;;;;25.75;15.32;;;12.30;51.30;;;;;;5135172;27;20030;-62
2022/04/13 01:09:15;;;;;;;21.95;15.18;;;12.30;51.20;;;;;;5135842;27;20023;-63
2022/04/13 01:11:40;;;;;;;24.08;15.60;;;12.20;51.30;;;;;;5135332;27;20055;-63
2022/04/13 01:14:08;;;;;;;22.92;15.25;;;12.30;51.40;;;;;;5117451;27;20055;-63
2022/04/13 01:16:37;;;;;;;22.15;15.25;;;12.20;51.70;;;;;;5116551;27;20035;-62
2022/04/13 01:19:04;;;;;;;25.88;15.68;;;12.10;51.80;;;;;;5135795;27;20031;-63
2022/04/13 01:21:40;;;;;;;26.73;15.85;;;12.10;51.90;;;;;;5134345;27;20498;-65
2022/04/13 01:24:06;;;;;;;22.67;15.52;;;12.10;52.20;;;;;;5135467;27;20035;-63
2022/04/13 01:26:32;;;;;;;20.98;14.65;;;12.00;52.30;;;;;;5135338;27;20027;-61
2022/04/13 01:28:58;;;;;;;26.40;15.25;;;12.00;52.60;;;;;;5117083;27;20023;-63
2022/04/13 01:31:23;;;;;;;23.58;15.63;;;11.90;52.40;;;;;;5100188;27;20019;-62
2022/04/13 01:33:49;;;;;;;24.10;15.30;;;12.00;52.40;;;;;;5116284;27;20417;-63
2022/04/13 01:36:16;;;;;;;22.90;15.35;;;12.00;52.30;;;;;;5134982;27;20389;-63
2022/04/13 01:38:41;;;;;;;26.17;15.98;;;11.90;52.40;;;;;;5116285;27;20063;-62
2022/04/13 01:41:07;;;;;;;26.25;15.32;;;11.90;52.50;;;;;;5135221;27;20078;-65
2022/04/13 01:43:33;;;;;;;23.58;14.07;;;11.90;52.50;;;;;;5134348;27;20027;-63
2022/04/13 01:45:58;;;;;;;22.05;14.77;;;11.90;52.60;;;;;;5135155;27;20519;-62
2022/04/13 01:48:24;;;;;;;25.33;14.68;;;11.80;52.60;;;;;;5135465;27;20309;-62
2022/04/13 01:50:50;;;;;;;29.15;15.57;;;11.80;52.70;;;;;;5115819;27;20376;-63
2022/04/13 01:53:16;;;;;;;22.30;14.90;;;11.90;52.60;;;;;;5134613;27;20163;-63
2022/04/13 01:55:42;;;;;;;21.73;13.82;;;11.80;52.50;;;;;;5134200;27;20523;-63
2022/04/13 01:58:08;;;;;;;24.42;15.68;;;11.80;52.50;;;;;;5134748;27;20015;-63
2022/04/13 02:00:34;;;;;;;23.25;14.68;;;11.80;52.50;;;;;;5115785;27;20459;-62
2022/04/13 02:02:59;;;;;;;24.77;15.20;;;11.80;52.40;;;;;;5115897;27;20027;-63
2022/04/13 02:05:25;;;;;;;27.88;15.90;;;11.80;52.40;;;;;;5134304;27;20084;-63
2022/04/13 02:07:51;;;;;;;22.60;15.55;;;11.80;52.50;;;;;;5115778;27;20261;-62
2022/04/13 02:10:18;;;;;;;22.75;14.77;;;11.70;52.30;;;;;;5134772;27;20031;-63
2022/04/13 02:12:44;;;;;;;26.58;15.48;;;11.80;52.30;;;;;;5115551;27;20031;-63
2022/04/13 02:15:11;;;;;;;23.35;14.55;;;11.70;52.30;;;;;;5134278;27;20106;-62
2022/04/13 02:17:38;;;;;;;23.65;14.25;;;11.70;52.50;;;;;;5133751;27;20015;-64
2022/04/13 02:20:08;;;;;;;23.70;14.77;;;11.70;52.50;;;;;;5134618;27;20092;-63
2022/04/13 02:22:35;;;;;;;22.38;14.20;;;11.70;52.40;;;;;;5133674;27;20031;-62
2022/04/13 02:25:05;;;;;;;24.35;14.50;;;11.60;52.40;;;;;;5134307;27;20091;-63
2022/04/13 02:27:32;;;;;;;20.95;14.00;;;11.70;52.20;;;;;;5134170;27;20041;-63
2022/04/13 02:29:57;;;;;;;23.35;14.20;;;11.70;52.10;;;;;;5134236;27;20055;-64
2022/04/13 02:32:23;;;;;;;22.60;13.38;;;11.70;52.10;;;;;;5098675;27;20063;-63
2022/04/13 02:34:49;;;;;;;21.77;13.07;;;11.70;52.10;;;;;;5133227;27;20030;-63
2022/04/13 02:37:15;;;;;;;23.73;13.40;;;11.70;52.20;;;;;;5133700;27;20019;-63
2022/04/13 02:39:41;;;;;;;23.42;13.40;;;11.70;52.10;;;;;;5133276;27;20023;-63
2022/04/13 02:42:07;;;;;;;22.15;13.10;;;11.70;52.10;;;;;;5133759;27;20058;-63
2022/04/13 02:44:33;;;;;;;23.27;13.68;;;11.60;52.30;;;;;;5133262;27;20379;-63
2022/04/13 02:46:59;;;;;;;21.38;12.98;;;11.50;52.50;;;;;;5133797;27;20460;-63
2022/04/13 02:49:26;;;;;;;24.55;13.90;;;11.50;52.50;;;;;;5133811;27;20106;-62
2022/04/13 02:51:52;;;;;;;27.98;13.88;;;11.40;52.70;;;;;;5133366;27;20385;-64
2022/04/13 02:54:18;;;;;;;23.70;12.98;;;11.40;52.90;;;;;;5115288;27;20131;-64
2022/04/13 02:56:43;;;;;;;24.23;13.93;;;11.30;53.00;;;;;;5133047;27;20066;-62
2022/04/13 02:59:09;;;;;;;24.63;14.27;;;11.30;53.10;;;;;;5133344;27;20084;-65
2022/04/13 03:01:35;;;;;;;22.90;14.05;;;11.20;53.10;;;;;;5133080;27;20062;-63
2022/04/13 03:04:01;;;;;;;22.23;13.15;;;11.30;53.10;;;;;;5115105;27;20070;-63
2022/04/13 03:06:26;;;;;;;20.33;13.10;;;11.30;53.10;;;;;;5133128;27;20019;-63
2022/04/13 03:08:52;;;;;;;19.70;13.10;;;11.30;53.00;;;;;;5133004;27;20025;-65
2022/04/13 03:11:18;;;;;;;22.50;13.85;;;11.30;52.90;;;;;;5133455;27;20474;-63
2022/04/13 03:13:43;;;;;;;21.77;12.98;;;11.30;52.80;;;;;;5132812;27;20102;-65
2022/04/13 03:16:09;;;;;;;19.90;12.65;;;11.40;52.70;;;;;;5114693;27;20036;-63
2022/04/13 03:18:35;;;;;;;22.63;12.55;;;11.40;52.60;;;;;;5131903;27;20511;-63
2022/04/13 03:21:00;;;;;;;23.02;13.05;;;11.40;52.60;;;;;;5133053;27;20026;-63
2022/04/13 03:23:26;;;;;;;19.48;11.75;;;11.40;52.70;;;;;;5132657;27;20364;-63
2022/04/13 03:25:52;;;;;;;21.02;12.63;;;11.40;52.60;;;;;;5132246;27;20272;-64
2022/04/13 03:28:19;;;;;;;19.02;11.95;;;11.30;52.60;;;;;;5114691;27;20027;-62
2022/04/13 03:30:45;;;;;;;22.08;11.98;;;11.30;52.80;;;;;;5132046;27;20047;-64
2022/04/13 03:33:11;;;;;;;20.38;11.95;;;11.30;52.90;;;;;;5132763;27;20093;-63
2022/04/13 03:35:37;;;;;;;19.08;12.05;;;11.20;53.10;;;;;;5113763;27;20485;-62
2022/04/13 03:38:02;;;;;;;21.73;12.40;;;11.20;52.90;;;;;;5132613;27;20023;-64
2022/04/13 03:40:28;;;;;;;18.42;11.35;;;11.20;53.10;;;;;;5114377;27;20372;-64
2022/04/13 03:42:54;;;;;;;21.08;12.00;;;11.10;53.20;;;;;;5132601;27;20059;-63
2022/04/13 03:45:20;;;;;;;20.55;11.35;;;11.10;53.20;;;;;;5132213;27;20049;-62
2022/04/13 03:47:46;;;;;;;19.15;11.73;;;11.00;53.90;;;;;;5113978;27;20127;-62
2022/04/13 03:50:12;;;;;;;17.33;11.75;;;11.10;53.30;;;;;;5114234;27;20114;-63
2022/04/13 03:52:38;;;;;;;24.48;11.95;;;11.00;53.20;;;;;;5132359;27;20027;-62
2022/04/13 03:55:07;;;;;;;18.52;11.45;;;11.00;53.20;;;;;;5133042;27;20084;-62
2022/04/13 03:57:34;;;;;;;19.58;11.25;;;10.90;53.50;;;;;;5132144;27;20031;-61
2022/04/13 03:59:59;;;;;;;18.80;11.73;;;10.90;53.40;;;;;;5132766;27;20047;-63
2022/04/13 04:02:25;;;;;;;18.77;11.23;;;10.90;53.40;;;;;;5132622;27;20062;-62
2022/04/13 04:04:51;;;;;;;17.05;11.07;;;10.90;53.30;;;;;;5131853;27;20031;-63
2022/04/13 04:07:17;;;;;;;19.55;10.88;;;10.90;53.20;;;;;;5132118;27;20015;-62
2022/04/13 04:09:43;;;;;;;20.17;11.38;;;10.90;53.30;;;;;;5113714;28;20047;-63
2022/04/13 04:12:09;;;;;;;16.92;10.50;;;10.80;53.40;;;;;;5114419;28;20090;-63
2022/04/13 04:14:35;;;;;;;21.52;11.43;;;10.80;53.60;;;;;;5131874;27;20030;-62
2022/04/13 04:17:01;;;;;;;24.33;11.18;;;10.80;53.60;;;;;;5113767;28;20110;-63
2022/04/13 04:19:27;;;;;;;19.85;10.32;;;10.70;53.60;;;;;;5114069;28;20118;-62
2022/04/13 04:21:54;;;;;;;16.38;10.98;;;10.80;53.60;;;;;;5113214;28;20413;-67
2022/04/13 04:24:20;;;;;;;23.85;11.27;;;10.80;53.40;;;;;;5113937;28;20031;-63
2022/04/13 04:26:46;;;;;;;18.85;10.85;;;10.80;53.30;;;;;;5131884;28;20464;-63
2022/04/13 04:29:11;;;;;;;16.58;10.02;;;10.80;53.30;;;;;;5114013;28;20110;-63
2022/04/13 04:31:59;;;;;;;18.38;10.93;;;10.80;53.20;;;;;;5131411;27;20080;-65
2022/04/13 04:34:25;;;;;;;21.15;10.52;;;10.80;53.10;;;;;;5132676;28;20387;-63
2022/04/13 04:36:51;;;;;;;18.40;9.82;;;10.80;53.00;;;;;;5131700;28;20080;-66
2022/04/13 04:39:17;;;;;;;18.25;9.90;;;10.80;53.10;;;;;;5132333;28;20023;-63
2022/04/13 04:41:43;;;;;;;15.98;9.95;;;10.80;53.00;;;;;;5131392;27;20078;-63
2022/04/13 04:44:10;;;;;;;17.40;10.65;;;10.80;53.00;;;;;;5113540;28;20067;-65
2022/04/13 04:46:36;;;;;;;16.70;10.00;;;10.80;52.90;;;;;;5131427;27;20023;-62
2022/04/13 04:49:06;;;;;;;21.48;10.82;;;10.80;52.70;;;;;;5132296;28;20025;-62
2022/04/13 04:51:32;;;;;;;23.83;10.25;;;10.80;52.60;;;;;;5113264;28;20027;-63
2022/04/13 04:54:01;;;;;;;20.02;9.55;;;10.80;52.50;;;;;;5132081;28;20042;-62
2022/04/13 04:56:28;;;;;;;19.10;10.77;;;10.80;52.50;;;;;;5114774;27;20033;-63
2022/04/13 04:58:54;;;;;;;17.42;10.65;;;10.90;52.40;;;;;;5135870;27;20023;-63
2022/04/13 05:01:20;;;;;;;23.20;9.85;;;10.90;52.20;;;;;;5117643;27;20049;-64
2022/04/13 05:03:48;;;;;;;19.00;9.98;;;10.90;52.00;;;;;;5116396;27;20035;-62
2022/04/13 05:06:20;;;;;;;19.10;9.43;;;11.00;51.90;;;;;;5135644;27;20050;-62
2022/04/13 05:08:46;;;;;;;18.42;10.15;;;11.00;51.70;;;;;;5134871;27;20357;-63
2022/04/13 05:11:12;;;;;;;20.27;9.35;;;11.10;51.50;;;;;;5135492;27;20019;-64
2022/04/13 05:13:38;;;;;;;20.48;9.48;;;11.20;51.40;;;;;;5134972;27;20031;-63
2022/04/13 05:16:05;;;;;;;17.77;10.30;;;11.20;51.90;;;;;;5135092;27;20110;-64
2022/04/13 05:18:31;;;;;;;16.75;9.75;;;11.20;50.90;;;;;;5134734;27;20020;-64
2022/04/13 05:20:57;;;;;;;15.88;9.70;;;11.30;50.90;;;;;;5135417;27;20064;-63
2022/04/13 05:23:23;;;;;;;16.02;9.48;;;11.30;50.80;;;;;;5116912;27;20075;-61
2022/04/13 05:25:49;;;;;;;16.38;9.63;;;11.30;50.70;;;;;;5135039;27;20019;-62
2022/04/13 05:28:16;;;;;;;16.58;9.27;;;11.20;50.70;;;;;;5117094;27;20057;-65
2022/04/13 05:30:42;;;;;;;19.40;10.00;;;11.20;50.60;;;;;;5134390;27;20030;-62
2022/04/13 05:33:07;;;;;;;16.30;9.48;;;11.20;50.70;;;;;;5116847;27;20030;-64
2022/04/13 05:35:33;;;;;;;16.02;9.30;;;11.20;50.60;;;;;;5115751;27;20035;-62
2022/04/13 05:38:02;;;;;;;16.60;9.10;;;11.30;50.50;;;;;;5116288;27;20023;-64
2022/04/13 05:40:28;;;;;;;15.52;9.57;;;11.30;50.30;;;;;;5134433;27;20046;-65
2022/04/13 05:42:54;;;;;;;18.20;9.20;;;11.40;50.30;;;;;;5135162;27;20456;-63
2022/04/13 05:45:20;;;;;;;16.17;9.43;;;11.40;50.00;;;;;;5134847;27;20019;-63
2022/04/13 05:47:48;;;;;;;18.83;10.13;;;11.50;50.20;;;;;;5134247;27;20026;-63
2022/04/13 05:50:15;;;;;;;21.38;10.52;;;11.50;50.00;;;;;;5134828;27;20027;-63
2022/04/13 05:52:43;;;;;;;17.50;9.23;;;11.50;49.90;;;;;;5134503;27;20019;-62
2022/04/13 05:55:10;;;;;;;19.77;11.02;;;11.60;49.60;;;;;;5134651;27;20456;-65
2022/04/13 05:57:37;;;;;;;22.60;10.52;;;11.60;49.60;;;;;;5116126;27;20035;-65
2022/04/13 06:00:05;;;;;;;19.17;10.32;;;11.70;49.60;;;;;;5134602;27;20027;-63
2022/04/13 06:02:31;;;;;;;16.20;9.52;;;11.70;49.40;;;;;;5133916;27;20450;-62
2022/04/13 06:04:58;;;;;;;18.08;10.07;;;11.80;49.20;;;;;;5134173;27;20046;-63
2022/04/13 06:07:24;;;;;;;15.93;10.05;;;11.70;49.20;;;;;;5132967;27;20016;-61
2022/04/13 06:09:50;;;;;;;20.27;9.10;;;11.90;49.20;;;;;;5115706;27;20057;-63
2022/04/13 06:12:23;;;;;;;17.73;9.77;;;12.00;49.00;;;;;;5116058;27;20386;-64
2022/04/13 06:14:49;;;;;;;15.77;9.88;;;12.10;48.70;;;;;;5133644;27;20456;-64
2022/04/13 06:17:16;;;;;;;18.52;9.93;;;12.10;48.60;;;;;;5115935;27;20027;-63
2022/04/13 06:19:43;;;;;;;17.52;10.25;;;12.20;48.30;;;;;;5132450;27;20113;-61
2022/04/13 06:22:08;;;;;;;16.52;9.63;;;12.20;48.20;;;;;;5114847;27;20102;-61
2022/04/13 06:24:35;;;;;;;22.67;9.50;;;12.20;48.30;;;;;;5097932;27;20114;-62
2022/04/13 06:27:00;;;;;;;20.20;9.65;;;12.20;48.30;;;;;;5133294;27;20478;-63
2022/04/13 06:29:26;;;;;;;19.20;9.27;;;12.20;48.20;;;;;;5114508;27;20109;-63
2022/04/13 06:31:52;;;;;;;17.77;10.10;;;12.20;48.40;;;;;;5115369;27;20058;-63
2022/04/13 06:34:17;;;;;;;21.40;9.35;;;12.30;48.40;;;;;;5115236;27;20030;-63
2022/04/13 06:36:43;;;;;;;16.65;10.00;;;12.40;48.10;;;;;;5114798;27;20526;-62
2022/04/13 06:39:09;;;;;;;20.67;10.23;;;12.40;48.00;;;;;;5115687;27;20031;-63
2022/04/13 06:41:35;;;;;;;24.23;10.48;;;12.50;47.90;;;;;;5113810;27;20043;-63
2022/04/13 06:44:02;;;;;;;18.42;9.98;;;12.50;47.80;;;;;;5133397;27;20475;-63
2022/04/13 06:46:28;;;;;;;17.60;9.70;;;12.50;47.90;;;;;;5097674;27;20038;-61
2022/04/13 06:48:54;;;;;;;18.40;9.88;;;12.60;48.00;;;;;;5133154;27;20019;-64
2022/04/13 06:51:20;;;;;;;17.23;9.57;;;12.70;47.80;;;;;;5131601;27;20027;-64
2022/04/13 06:53:46;;;;;;;20.58;10.13;;;12.80;47.40;;;;;;5131545;27;20555;-65
2022/04/13 06:56:11;;;;;;;18.50;10.15;;;12.90;47.30;;;;;;5133720;27;20094;-64
2022/04/13 06:58:37;;;;;;;21.02;10.75;;;13.00;47.10;;;;;;5132901;27;20127;-65
2022/04/13 07:01:03;;;;;;;16.55;10.15;;;13.10;46.80;;;;;;5133628;27;20491;-66
2022/04/13 07:03:29;;;;;;;20.25;10.50;;;13.20;46.70;;;;;;5114375;27;20031;-61
2022/04/13 07:05:54;;;;;;;17.90;9.77;;;13.30;46.60;;;;;;5115023;27;20030;-64
2022/04/13 07:08:20;;;;;;;17.58;10.38;;;13.40;46.40;;;;;;5114739;27;20026;-66
2022/04/13 07:10:47;;;;;;;17.25;10.77;;;13.40;46.20;;;;;;5113712;27;20494;-65
2022/04/13 07:13:14;;;;;;;16.45;10.40;;;13.60;46.20;;;;;;5133446;27;20084;-65
2022/04/13 07:15:40;;;;;;;16.35;11.35;;;13.90;45.90;;;;;;5114290;27;20027;-65
2022/04/13 07:18:06;;;;;;;19.95;10.73;;;15.20;44.70;;;;;;5133332;27;20030;-63
2022/04/13 07:20:32;;;;;;;16.30;11.38;;;18.40;40.80;;;;;;5131590;27;20098;-63
2022/04/13 07:22:57;;;;;;;15.80;10.52;;;21.20;34.90;;;;;;5133159;27;20114;-65
2022/04/13 07:25:24;;;;;;;15.73;10.85;;;23.40;31.80;;;;;;5095402;27;20061;-64
2022/04/13 07:27:50;;;;;;;20.75;10.90;;;25.40;30.10;;;;;;5112751;27;20511;-64
2022/04/13 07:30:17;;;;;;;18.98;10.27;;;27.70;28.70;;;;;;5113951;27;20118;-66
2022/04/13 07:32:47;;;;;;;43.17;13.45;;;29.60;27.30;;;;;;5132603;27;20495;-65
2022/04/13 07:35:14;;;;;;;12.90;9.75;;;31.50;26.10;;;;;;5114696;27;20036;-64
2022/04/13 07:37:41;;;;;;;15.57;9.60;;;32.30;24.20;;;;;;5131845;27;20034;-65
2022/04/13 07:40:11;;;;;;;15.13;9.45;;;32.50;24.20;;;;;;5113501;27;20033;-65
2022/04/13 07:42:38;;;;;;;15.85;10.65;;;32.90;23.20;;;;;;5113725;27;20043;-66
2022/04/13 07:45:07;;;;;;;13.07;9.02;;;33.20;23.30;;;;;;5112673;27;20045;-65
2022/04/13 07:47:33;;;;;;;17.77;10.00;;;33.80;22.60;;;;;;5131850;27;20561;-64
2022/04/13 07:49:59;;;;;;;27.27;9.48;;;33.90;22.70;;;;;;5132668;27;20031;-65
2022/04/13 07:52:24;;;;;;;14.20;9.52;;;34.10;22.60;;;;;;5131962;27;20524;-64
2022/04/13 07:54:51;;;;;;;13.80;9.32;;;34.10;22.50;;;;;;5113674;27;20027;-65
2022/04/13 07:57:16;;;;;;;19.40;9.65;;;34.00;22.20;;;;;;5114184;27;20019;-63
2022/04/13 07:59:43;;;;;;;14.63;8.82;;;33.80;22.30;;;;;;5112696;28;20029;-65
2022/04/13 08:02:09;;;;;;;13.73;8.95;;;33.80;22.30;;;;;;5131914;27;20066;-66
2022/04/13 08:04:35;;;;;;;10.50;8.25;;;33.70;22.10;;;;;;5131862;27;20027;-65
2022/04/13 08:07:01;;;;;;;14.32;9.52;;;34.50;22.00;;;;;;5113686;28;20443;-65
2022/04/13 08:09:28;;;;;;;17.65;9.93;;;34.90;21.90;;;;;;5132126;28;20027;-64
2022/04/13 08:11:55;;;;;;;14.70;9.88;;;35.10;21.90;;;;;;5113121;28;20031;-65
2022/04/13 08:14:22;;;;;;;11.70;9.65;;;35.10;21.80;;;;;;5132369;27;20118;-65
2022/04/13 08:16:49;;;;;;;11.60;9.45;;;35.70;21.50;;;;;;5113361;28;20118;-65
2022/04/13 08:19:15;;;;;;;13.48;10.60;;;35.30;21.40;;;;;;5131946;27;20060;-65
2022/04/13 08:21:41;;;;;;;15.30;9.07;;;35.20;21.50;;;;;;5113322;28;20028;-66
2022/04/13 08:24:07;;;;;;;15.82;8.82;;;35.50;21.50;;;;;;5113935;28;20046;-66
2022/04/13 08:26:33;;;;;;;14.80;8.98;;;35.70;21.30;;;;;;5132232;27;20072;-66
2022/04/13 08:28:59;;;;;;;11.98;9.02;;;35.90;21.30;;;;;;5132335;27;20047;-66
2022/04/13 08:31:43;;;;;;;12.85;8.75;;;35.20;21.20;;;;;;5134068;27;20368;-66
2022/04/13 08:34:09;;;;;;;13.98;9.45;;;34.10;21.80;;;;;;5118001;27;20031;-66
2022/04/13 08:36:34;;;;;;;13.05;9.10;;;33.90;21.80;;;;;;5135883;27;20060;-65
2022/04/13 08:39:00;;;;;;;18.50;9.25;;;34.30;22.00;;;;;;5117766;27;20023;-66
2022/04/13 08:41:52;;;;;;;16.58;8.52;;;34.90;21.90;;;;;;5136256;27;20498;-66
2022/04/13 08:44:41;;;;;;;12.20;8.45;;;34.90;21.50;;;;;;5136383;27;20394;-66
2022/04/13 08:47:18;;;;;;;11.23;9.00;;;35.40;21.10;;;;;;5099754;27;20027;-66
2022/04/13 08:49:48;;;;;;;11.07;8.43;;;34.60;21.20;;;;;;5100399;27;20023;-66
2022/04/13 08:52:17;;;;;;;18.40;9.27;;;33.10;21.60;;;;;;5117650;27;20096;-67
2022/04/13 08:54:52;;;;;;;13.93;8.55;;;31.40;22.40;;;;;;5136040;27;20092;-65
2022/04/13 08:57:22;;;;;;;14.25;8.93;;;29.50;23.40;;;;;;5136450;27;20020;-67
2022/04/13 08:59:57;;;;;;;14.43;8.07;;;27.40;24.70;;;;;;5135424;27;20076;-65
2022/04/13 09:02:50;;;;;;;15.05;8.32;;;25.70;25.90;;;;;;5117416;27;20027;-64
2022/04/13 09:05:23;;;;;;;15.05;8.80;;;24.40;27.10;;;;;;5135656;27;20050;-67
2022/04/13 09:08:07;;;;;;;12.55;8.25;;;23.50;28.20;;;;;;5135942;27;20019;-66
2022/04/13 09:10:33;;;;;;;14.75;8.82;;;22.50;29.40;;;;;;5136071;27;20016;-64
2022/04/13 09:13:00;;;;;;;14.18;9.25;;;21.70;30.20;;;;;;5117364;27;20070;-65
2022/04/13 09:15:26;;;;;;;16.80;8.48;;;21.00;31.30;;;;;;5117850;27;20126;-64
2022/04/13 09:17:52;;;;;;;18.98;9.63;;;20.50;32.10;;;;;;5116398;27;20032;-66
2022/04/13 09:20:18;;;;;;;14.85;8.93;;;20.30;32.40;;;;;;5135207;27;20023;-62
2022/04/13 09:22:46;;;;;;;16.98;8.82;;;20.30;32.70;;;;;;5116278;27;20127;-64
2022/04/13 09:25:12;;;;;;;14.60;8.55;;;20.10;32.90;;;;;;5135783;27;20028;-65
2022/04/13 09:27:38;;;;;;;17.83;8.25;;;19.90;33.50;;;;;;5134924;27;20402;-62
2022/04/13 09:30:06;;;;;;;16.90;9.25;;;19.60;34.20;;;;;;5135531;27;20041;-65
2022/04/13 09:32:32;;;;;;;16.85;8.77;;;19.40;34.40;;;;;;5116898;27;20035;-64
2022/04/13 09:34:59;;;;;;;16.80;9.38;;;19.30;34.50;;;;;;5115953;27;20091;-65
2022/04/13 09:37:26;;;;;;;16.05;8.80;;;19.10;34.90;;;;;;5116297;27;20068;-66
2022/04/13 09:39:52;;;;;;;16.70;9.23;;;19.10;35.10;;;;;;5116083;27;20027;-65
2022/04/13 09:42:19;;;;;;;16.90;8.52;;;18.90;35.30;;;;;;5115588;28;20051;-66
2022/04/13 09:44:56;;;;;;;20.95;8.43;;;18.90;35.50;;;;;;5115620;27;20031;-65
2022/04/13 09:47:28;;;;;;;16.20;8.10;;;18.80;36.20;;;;;;5134765;27;20061;-65
2022/04/13 09:49:55;;;;;;;18.20;8.40;;;18.70;36.00;;;;;;5134511;27;20048;-65
2022/04/13 09:52:38;;;;;;;16.27;8.95;;;18.60;36.30;;;;;;5134921;27;20038;-67
2022/04/13 09:55:08;;;;;;;20.63;8.55;;;18.70;36.30;;;;;;5134641;27;20023;-66
2022/04/13 09:57:34;;;;;;;22.13;8.93;;;18.70;36.10;;;;;;5134540;27;20088;-66
2022/04/13 10:00:03;;;;;;;16.98;8.18;;;18.80;36.00;;;;;;5115528;27;20077;-65
2022/04/13 10:02:40;;;;;;;20.48;8.32;;;18.60;36.20;;;;;;5115944;27;20035;-66
2022/04/13 10:05:08;;;;;;;13.60;8.07;;;18.50;36.50;;;;;;5134454;27;20060;-66
2022/04/13 10:07:35;;;;;;;16.10;8.18;;;18.60;36.50;;;;;;5116010;27;20027;-65
2022/04/13 10:10:02;;;;;;;17.17;8.50;;;18.80;36.40;;;;;;5115370;27;20467;-66
2022/04/13 10:12:28;;;;;;;17.15;8.55;;;19.00;36.10;;;;;;5115724;27;20038;-65
2022/04/13 10:15:07;;;;;;;21.90;8.70;;;19.10;35.90;;;;;;5133931;27;20333;-65
2022/04/13 10:17:34;;;;;;;16.08;8.10;;;19.10;35.80;;;;;;5115234;27;20498;-65
2022/04/13 10:20:00;;;;;;;17.05;7.82;;;19.00;35.80;;;;;;5114235;27;20020;-65
2022/04/13 10:22:26;;;;;;;14.30;7.90;;;19.00;36.00;;;;;;5114206;27;20547;-65
2022/04/13 10:24:52;;;;;;;15.18;8.30;;;19.00;35.90;;;;;;5097714;27;20046;-64
2022/04/13 10:27:19;;;;;;;19.00;8.65;;;18.90;36.10;;;;;;5114752;27;20069;-65
2022/04/13 10:29:49;;;;;;;16.50;8.35;;;18.90;36.20;;;;;;5114492;27;20471;-65
2022/04/13 10:32:17;;;;;;;15.75;8.20;;;18.90;36.30;;;;;;5133069;27;20033;-64
2022/04/13 10:34:48;;;;;;;20.98;11.00;;;18.90;36.20;;;;;;5113952;27;20039;-64
2022/04/13 10:37:17;;;;;;;14.60;8.32;;;19.10;36.10;;;;;;5133559;27;20099;-66
2022/04/13 10:42:33;;;;;;;15.93;8.52;;;19.30;35.80;;;;;;5117976;27;20142;-66
2022/04/13 10:45:18;;;;;;;13.63;8.02;;;19.30;35.80;;;;;;5133032;27;20019;-64
2022/04/13 10:47:55;;;;;;;17.27;7.57;;;19.50;35.50;;;;;;5114533;27;20028;-64
2022/04/13 10:50:35;;;;;;;22.23;8.45;;;19.50;35.30;;;;;;5114632;27;20023;-65
2022/04/13 10:53:22;;;;;;;15.85;8.15;;;19.60;35.30;;;;;;5114006;27;20438;-67
2022/04/13 10:56:00;;;;;;;13.00;7.88;;;19.70;35.20;;;;;;5131732;27;20031;-63
2022/04/13 10:58:47;;;;;;;12.85;7.97;;;19.70;35.00;;;;;;5114379;27;20042;-64
2022/04/13 11:01:15;;;;;;;16.40;8.23;;;19.60;34.70;;;;;;5132855;27;20039;-65
2022/04/13 11:03:42;;;;;;;13.80;7.93;;;19.60;34.80;;;;;;5113601;27;20031;-65
2022/04/13 11:06:11;;;;;;;18.00;7.75;;;19.70;34.90;;;;;;5132111;27;20095;-65
2022/04/13 11:09:07;;;;;;;12.65;8.20;;;19.70;34.70;;;;;;5132506;27;20136;-65
2022/04/13 11:11:37;;;;;;;16.23;8.05;;;19.90;35.20;;;;;;5113869;27;20019;-65
2022/04/13 11:14:18;;;;;;;15.52;8.18;;;20.00;34.40;;;;;;5113583;27;20096;-63
2022/04/13 11:16:44;;;;;;;13.23;8.07;;;19.90;34.30;;;;;;5114207;27;20034;-62
2022/04/13 11:19:10;;;;;;;15.02;8.10;;;19.90;34.50;;;;;;5114030;27;20195;-65
2022/04/13 11:21:58;;;;;;;17.05;8.10;;;20.00;34.50;;;;;;5132396;27;20460;-64
2022/04/13 11:24:47;;;;;;;12.20;7.63;;;20.10;34.20;;;;;;5132027;27;20081;-65
2022/04/13 11:27:14;;;;;;;12.52;7.22;;;20.20;33.80;;;;;;5118840;27;20031;-63
2022/04/13 11:29:40;;;;;;;16.77;7.53;;;20.30;33.90;;;;;;5132264;27;20054;-64
2022/04/13 11:32:06;;;;;;;11.77;7.28;;;20.40;33.80;;;;;;5131676;27;20063;-61
2022/04/13 11:34:42;;;;;;;16.13;7.20;;;20.30;33.60;;;;;;5132057;27;20073;-64
2022/04/13 11:37:19;;;;;;;16.02;7.30;;;20.30;33.70;;;;;;5131381;27;20106;-64
2022/04/13 11:39:56;;;;;;;13.75;7.10;;;20.20;33.80;;;;;;5131842;27;20115;-62
2022/04/13 11:42:34;;;;;;;11.90;6.63;;;20.10;34.10;;;;;;5115235;27;20035;-64
2022/04/13 11:45:03;;;;;;;11.65;7.32;;;20.10;34.30;;;;;;5113843;28;20107;-63
2022/04/13 11:47:50;;;;;;;16.02;7.60;;;20.10;34.30;;;;;;5113984;27;20091;-62
2022/04/13 11:50:19;;;;;;;15.57;7.10;;;20.30;34.20;;;;;;5132381;27;20023;-62
2022/04/13 11:52:50;;;;;;;14.77;7.88;;;20.40;33.90;;;;;;5113773;27;20023;-62
2022/04/13 11:55:35;;;;;;;12.95;7.13;;;20.40;34.00;;;;;;5132747;27;20072;-64
2022/04/13 11:58:09;;;;;;;;;;;20.40;33.70;;;;;;5113604;28;20047;-62
2022/04/13 12:00:44;;;;;;;12.25;7.20;;;20.40;34.00;;;;;;5113033;27;19961;-64
2022/04/13 12:03:16;;;;;;;12.48;7.43;;;20.60;33.90;;;;;;5131074;27;20038;-62
2022/04/13 12:06:09;;;;;;;11.23;6.72;;;20.60;33.80;;;;;;5130869;27;20031;-62
2022/04/13 12:08:37;;;;;;;14.40;6.88;;;20.70;33.30;;;;;;5110026;28;20038;-63
2022/04/13 12:11:08;;;;;;;13.77;6.97;;;20.70;33.20;;;;;;5113124;28;20062;-61
2022/04/13 12:13:54;;;;;;;11.10;6.47;;;20.80;33.30;;;;;;5132256;28;20031;-64
2022/04/13 12:16:25;;;;;;;10.85;6.32;;;20.80;33.20;;;;;;5114053;28;20024;-62
2022/04/13 12:18:53;;;;;;;17.15;6.95;;;20.90;33.00;;;;;;5112665;28;20038;-61
2022/04/13 12:21:26;;;;;;;11.07;6.22;;;21.10;32.70;;;;;;5131915;28;20032;-63
2022/04/13 12:23:53;;;;;;;9.05;6.45;;;21.00;32.70;;;;;;5131441;28;20019;-63
2022/04/13 12:26:32;;;;;;;10.93;6.85;;;20.80;33.00;;;;;;5131915;27;20136;-64
2022/04/13 12:28:58;;;;;;;11.52;6.93;;;20.80;33.00;;;;;;5131487;28;20092;-63
2022/04/13 12:31:27;;;;;;;11.35;5.97;;;20.70;33.00;;;;;;5131959;28;20022;-63
2022/04/13 12:33:58;;;;;;;11.00;6.70;;;20.80;32.90;;;;;;5112730;28;20081;-62
2022/04/13 12:36:24;;;;;;;16.88;6.90;;;20.90;33.10;;;;;;5112617;28;20203;-63
2022/04/13 12:38:55;;;;;;;9.25;6.18;;;21.00;33.20;;;;;;5112716;28;20106;-62
2022/04/13 12:41:22;;;;;;;10.38;6.10;;;21.20;32.90;;;;;;5113027;28;20050;-62